createdAt,value
2018-07-28T00:00:57.407Z,91.12
2018-07-28T00:01:57.458Z,91.79
2018-07-28T00:02:57.528Z,89.72
2018-07-28T00:03:57.583Z,91.21
2018-07-28T00:04:57.611Z,91.60
2018-07-28T00:05:57.665Z,91.94
2018-07-28T00:06:57.713Z,91.55
2018-07-28T00:07:57.789Z,91.75
2018-07-28T00:08:57.819Z,92.03
2018-07-28T00:09:57.873Z,92.85
2018-07-28T00:10:57.920Z,92.03
2018-07-28T00:11:57.971Z,91.65
2018-07-28T00:12:58.051Z,91.46
2018-07-28T00:13:58.074Z,93.00
2018-07-28T00:14:58.125Z,92.90
2018-07-28T00:15:58.176Z,92.66
2018-07-28T00:16:58.228Z,93.00
2018-07-28T00:17:58.317Z,92.47
2018-07-28T00:18:58.336Z,91.94
2018-07-28T00:19:58.382Z,92.52
2018-07-28T00:20:58.436Z,91.79
2018-07-28T00:21:58.486Z,92.80
2018-07-28T00:22:58.579Z,93.04
2018-07-28T00:23:58.590Z,93.09
2018-07-28T00:24:58.643Z,91.94
2018-07-28T00:25:58.692Z,92.80
2018-07-28T00:26:58.744Z,93.29
2018-07-28T00:27:58.826Z,94.15
2018-07-28T00:28:58.846Z,94.34
2018-07-28T00:29:58.898Z,92.80
2018-07-28T00:30:58.951Z,94.44
2018-07-28T00:31:59.003Z,94.73
2018-07-28T00:32:59.079Z,94.34
2018-07-28T00:33:59.106Z,94.25
2018-07-28T00:34:59.156Z,93.48
2018-07-28T00:35:59.206Z,93.29
2018-07-28T00:36:59.292Z,93.00
2018-07-28T00:37:59.311Z,94.06
2018-07-28T00:39:00.110Z,94.25
2018-07-28T00:39:59.415Z,93.38
2018-07-28T00:40:59.464Z,93.77
2018-07-28T00:41:59.541Z,91.75
2018-07-28T00:42:59.569Z,92.13
2018-07-28T00:43:59.619Z,93.09
2018-07-28T00:44:59.697Z,94.64
2018-07-28T00:45:59.720Z,90.78
2018-07-28T00:46:59.773Z,92.61
2018-07-28T00:47:59.825Z,91.36
2018-07-28T00:48:59.883Z,91.84
2018-07-28T00:49:59.950Z,93.77
2018-07-28T00:50:59.981Z,94.25
2018-07-28T00:52:00.030Z,93.48
2018-07-28T00:53:00.086Z,92.71
2018-07-28T00:54:00.134Z,93.09
2018-07-28T00:55:00.208Z,92.80
2018-07-28T00:56:00.238Z,91.46
2018-07-28T00:57:00.286Z,91.84
2018-07-28T00:58:00.363Z,90.59
2018-07-28T00:59:00.388Z,90.01
2018-07-28T01:00:00.444Z,90.30
2018-07-28T01:01:00.492Z,90.88
2018-07-28T01:02:00.553Z,90.40
2018-07-28T01:03:00.620Z,90.01
2018-07-28T01:04:00.645Z,90.97
2018-07-28T01:05:00.721Z,91.36
2018-07-28T01:06:00.749Z,90.88
2018-07-28T01:07:00.800Z,90.59
2018-07-28T01:08:00.876Z,91.07
2018-07-28T01:09:00.905Z,90.88
2018-07-28T01:10:00.963Z,91.17
2018-07-28T01:11:01.006Z,91.17
2018-07-28T01:12:01.057Z,90.30
2018-07-28T01:13:01.132Z,91.65
2018-07-28T01:14:01.162Z,91.75
2018-07-28T01:15:01.214Z,92.90
2018-07-28T01:16:01.265Z,91.65
2018-07-28T01:17:01.370Z,92.18
2018-07-28T01:18:01.408Z,91.99
2018-07-28T01:19:01.416Z,90.83
2018-07-28T01:20:01.467Z,91.03
2018-07-28T01:21:01.523Z,91.41
2018-07-28T01:22:01.569Z,91.80
2018-07-28T01:23:01.655Z,91.65
2018-07-28T01:24:01.677Z,91.55
2018-07-28T01:25:01.730Z,92.71
2018-07-28T01:26:01.779Z,91.70
2018-07-28T01:27:01.830Z,92.76
2018-07-28T01:28:01.901Z,91.80
2018-07-28T01:29:01.933Z,92.66
2018-07-28T01:30:01.984Z,92.47
2018-07-28T01:31:02.057Z,92.76
2018-07-28T01:32:02.092Z,93.53
2018-07-28T01:33:02.141Z,93.24
2018-07-28T01:34:02.211Z,93.91
2018-07-28T01:35:02.236Z,93.43
2018-07-28T01:36:02.321Z,93.82
2018-07-28T01:37:02.340Z,93.82
2018-07-28T01:38:02.392Z,92.47
2018-07-28T01:39:02.442Z,93.43
2018-07-28T01:40:02.493Z,92.57
2018-07-28T01:41:02.574Z,91.80
2018-07-28T01:42:02.596Z,93.33
2018-07-28T01:43:02.648Z,92.95
2018-07-28T01:44:02.721Z,91.31
2018-07-28T01:45:02.753Z,91.31
2018-07-28T01:46:02.802Z,89.97
2018-07-28T01:47:02.854Z,90.55
2018-07-28T01:48:02.903Z,89.87
2018-07-28T01:49:02.976Z,90.26
2018-07-28T01:50:03.005Z,90.16
2018-07-28T01:51:03.065Z,90.35
2018-07-28T01:52:03.134Z,91.03
2018-07-28T01:53:03.165Z,90.16
2018-07-28T01:54:03.223Z,89.97
2018-07-28T01:55:03.261Z,88.91
2018-07-28T01:56:03.313Z,89.01
2018-07-28T01:57:03.386Z,89.49
2018-07-28T01:58:03.414Z,90.01
2018-07-28T01:59:03.500Z,89.15
2018-07-28T02:00:03.516Z,89.49
2018-07-28T02:01:03.569Z,89.34
2018-07-28T02:02:03.644Z,89.24
2018-07-28T02:03:03.670Z,89.68
2018-07-28T02:04:03.750Z,89.20
2018-07-28T02:05:03.782Z,89.72
2018-07-28T02:06:03.825Z,89.72
2018-07-28T02:07:03.896Z,89.78
2018-07-28T02:08:03.925Z,88.81
2018-07-28T02:09:03.982Z,89.20
2018-07-28T02:10:04.054Z,89.68
2018-07-28T02:11:04.080Z,89.20
2018-07-28T02:12:04.131Z,90.26
2018-07-28T02:13:04.183Z,88.91
2018-07-28T02:14:04.235Z,89.97
2018-07-28T02:15:04.309Z,89.97
2018-07-28T02:16:04.336Z,89.49
2018-07-28T02:17:04.388Z,90.06
2018-07-28T02:18:04.437Z,91.70
2018-07-28T02:19:04.487Z,90.45
2018-07-28T02:20:04.566Z,91.22
2018-07-28T02:21:04.591Z,91.13
2018-07-28T02:22:04.642Z,90.45
2018-07-28T02:23:04.694Z,90.83
2018-07-28T02:24:04.744Z,91.80
2018-07-28T02:25:04.821Z,90.45
2018-07-28T02:26:04.847Z,89.49
2018-07-28T02:27:04.897Z,89.78
2018-07-28T02:28:04.949Z,89.39
2018-07-28T02:29:05.000Z,88.62
2018-07-28T02:30:05.085Z,87.80
2018-07-28T02:31:05.125Z,88.76
2018-07-28T02:32:05.154Z,88.47
2018-07-28T02:33:05.205Z,88.95
2018-07-28T02:34:05.260Z,87.90
2018-07-28T02:35:05.306Z,89.34
2018-07-28T02:36:05.386Z,88.38
2018-07-28T02:37:05.412Z,87.22
2018-07-28T02:38:05.459Z,87.56
2018-07-28T02:39:05.512Z,88.76
2018-07-28T02:40:05.561Z,87.90
2018-07-28T02:41:05.641Z,87.22
2018-07-28T02:42:05.664Z,87.51
2018-07-28T02:43:05.719Z,87.70
2018-07-28T02:44:05.768Z,87.60
2018-07-28T02:45:05.818Z,86.93
2018-07-28T02:46:05.891Z,86.65
2018-07-28T02:47:05.920Z,86.93
2018-07-28T02:48:05.972Z,86.74
2018-07-28T02:49:06.022Z,87.22
2018-07-28T02:50:06.082Z,86.93
2018-07-28T02:51:06.150Z,87.12
2018-07-28T02:52:06.176Z,87.90
2018-07-28T02:53:06.228Z,87.22
2018-07-28T02:54:06.278Z,88.28
2018-07-28T02:55:06.328Z,87.51
2018-07-28T02:56:06.402Z,87.99
2018-07-28T02:57:06.440Z,88.18
2018-07-28T02:58:06.481Z,88.85
2018-07-28T02:59:06.535Z,89.15
2018-07-28T03:00:06.661Z,88.85
2018-07-28T03:01:06.660Z,89.53
2018-07-28T03:02:06.687Z,89.34
2018-07-28T03:03:06.740Z,90.01
2018-07-28T03:04:06.792Z,91.07
2018-07-28T03:05:06.847Z,90.01
2018-07-28T03:06:06.931Z,89.92
2018-07-28T03:07:06.941Z,90.40
2018-07-28T03:08:06.993Z,89.82
2018-07-28T03:09:07.045Z,90.59
2018-07-28T03:10:07.100Z,90.01
2018-07-28T03:11:07.178Z,91.07
2018-07-28T03:12:07.199Z,91.36
2018-07-28T03:13:07.255Z,90.88
2018-07-28T03:14:07.302Z,90.40
2018-07-28T03:15:07.351Z,90.40
2018-07-28T03:16:07.427Z,89.72
2018-07-28T03:17:07.457Z,89.72
2018-07-28T03:18:07.538Z,89.82
2018-07-28T03:19:07.556Z,90.59
2018-07-28T03:20:07.608Z,90.30
2018-07-28T03:21:07.658Z,89.72
2018-07-28T03:22:07.738Z,90.59
2018-07-28T03:23:07.785Z,91.07
2018-07-28T03:24:08.360Z,90.78
2018-07-28T03:25:07.862Z,91.75
2018-07-28T03:26:07.913Z,91.75
2018-07-28T03:27:07.964Z,92.52
2018-07-28T03:28:08.047Z,93.00
2018-07-28T03:29:08.068Z,92.76
2018-07-28T03:30:08.119Z,92.66
2018-07-28T03:31:08.168Z,93.05
2018-07-28T03:32:08.222Z,93.15
2018-07-28T03:33:08.305Z,93.62
2018-07-28T03:34:08.322Z,93.05
2018-07-28T03:35:08.372Z,93.24
2018-07-28T03:36:08.423Z,93.33
2018-07-28T03:37:08.474Z,93.82
2018-07-28T03:38:08.570Z,94.59
2018-07-28T03:39:08.579Z,94.59
2018-07-28T03:40:08.630Z,94.20
2018-07-28T03:41:08.678Z,95.26
2018-07-28T03:42:08.730Z,95.36
2018-07-28T03:43:08.805Z,95.74
2018-07-28T03:44:08.855Z,95.45
2018-07-28T03:45:08.886Z,96.80
2018-07-28T03:46:08.935Z,95.84
2018-07-28T03:47:08.984Z,96.70
2018-07-28T03:48:09.037Z,96.03
2018-07-28T03:49:09.156Z,97.14
2018-07-28T03:50:09.148Z,97.38
2018-07-28T03:51:09.190Z,95.84
2018-07-28T03:52:09.241Z,97.42
2018-07-28T03:53:09.293Z,97.71
2018-07-28T03:54:09.373Z,97.33
2018-07-28T03:55:09.395Z,98.00
2018-07-28T03:56:09.445Z,97.91
2018-07-28T03:57:09.497Z,98.96
2018-07-28T03:58:09.546Z,98.96
2018-07-28T03:59:09.629Z,99.44
2018-07-28T04:00:09.654Z,99.83
2018-07-28T04:01:09.711Z,99.99
2018-07-28T04:02:09.755Z,99.99
2018-07-28T04:03:09.801Z,99.99
2018-07-28T04:04:09.933Z,99.99
2018-07-28T04:05:09.906Z,99.99
2018-07-28T04:06:09.955Z,99.99
2018-07-28T04:07:10.012Z,99.99
2018-07-28T04:08:10.056Z,99.99
2018-07-28T04:09:10.145Z,99.99
2018-07-28T04:10:10.160Z,99.99
2018-07-28T04:11:10.213Z,99.99
2018-07-28T04:12:10.262Z,99.99
2018-07-28T04:13:10.312Z,99.99
2018-07-28T04:14:10.386Z,99.99
2018-07-28T04:15:10.412Z,99.99
2018-07-28T04:16:10.492Z,99.99
2018-07-28T04:17:10.517Z,99.99
2018-07-28T04:18:10.565Z,99.99
2018-07-28T04:19:10.616Z,99.73
2018-07-28T04:20:10.690Z,98.58
2018-07-28T04:21:10.743Z,98.77
2018-07-28T04:22:10.769Z,98.49
2018-07-28T04:23:10.821Z,99.44
2018-07-28T04:24:10.871Z,97.71
2018-07-28T04:25:10.947Z,97.91
2018-07-28T04:26:10.997Z,97.81
2018-07-28T04:27:11.027Z,98.49
2018-07-28T04:28:11.073Z,98.77
2018-07-28T04:29:11.133Z,98.72
2018-07-28T04:30:11.204Z,97.62
2018-07-28T04:31:11.226Z,97.52
2018-07-28T04:32:11.278Z,97.71
2018-07-28T04:33:11.329Z,98.00
2018-07-28T04:34:11.389Z,96.99
2018-07-28T04:35:11.458Z,97.14
2018-07-28T04:36:11.486Z,97.81
2018-07-28T04:37:11.672Z,98.10
2018-07-28T04:38:11.584Z,95.31
2018-07-28T04:39:11.640Z,95.21
2018-07-28T04:40:11.686Z,96.85
2018-07-28T04:41:11.760Z,96.37
2018-07-28T04:42:11.815Z,95.70
2018-07-28T04:43:11.842Z,95.94
2018-07-28T04:44:11.892Z,96.22
2018-07-28T04:45:11.946Z,97.38
2018-07-28T04:46:12.022Z,95.55
2018-07-28T04:47:12.043Z,97.38
2018-07-28T04:48:12.099Z,97.19
2018-07-28T04:49:12.144Z,96.51
2018-07-28T04:50:12.196Z,95.84
2018-07-28T04:51:12.284Z,96.61
2018-07-28T04:52:12.301Z,96.32
2018-07-28T04:53:12.348Z,95.65
2018-07-28T04:54:12.399Z,96.51
2018-07-28T04:55:12.448Z,96.70
2018-07-28T04:56:12.535Z,95.55
2018-07-28T04:57:12.551Z,95.65
2018-07-28T04:58:12.605Z,96.51
2018-07-28T04:59:12.659Z,96.37
2018-07-28T05:00:12.705Z,96.66
2018-07-28T05:01:12.781Z,95.89
2018-07-28T05:02:12.810Z,97.42
2018-07-28T05:03:12.884Z,97.04
2018-07-28T05:04:12.911Z,97.52
2018-07-28T05:05:12.970Z,98.29
2018-07-28T05:06:13.012Z,97.52
2018-07-28T05:07:13.126Z,98.87
2018-07-28T05:08:13.140Z,96.56
2018-07-28T05:09:13.165Z,96.56
2018-07-28T05:10:13.219Z,96.66
2018-07-28T05:11:13.272Z,97.96
2018-07-28T05:12:13.342Z,96.51
2018-07-28T05:13:13.393Z,96.42
2018-07-28T05:14:13.425Z,96.51
2018-07-28T05:15:13.479Z,97.09
2018-07-28T05:16:13.524Z,97.28
2018-07-28T05:17:13.575Z,98.54
2018-07-28T05:18:13.650Z,97.96
2018-07-28T05:19:13.677Z,98.24
2018-07-28T05:20:13.729Z,97.76
2018-07-28T05:21:13.780Z,98.15
2018-07-28T05:22:13.848Z,98.72
2018-07-28T05:23:13.907Z,98.82
2018-07-28T05:24:13.960Z,98.15
2018-07-28T05:25:13.990Z,97.72
2018-07-28T05:26:14.041Z,97.42
2018-07-28T05:27:14.088Z,98.00
2018-07-28T05:28:14.164Z,99.93
2018-07-28T05:29:14.193Z,98.39
2018-07-28T05:30:14.244Z,99.55
2018-07-28T05:31:14.298Z,99.74
2018-07-28T05:32:14.349Z,98.97
2018-07-28T05:33:14.422Z,98.20
2018-07-28T05:34:14.473Z,97.81
2018-07-28T05:35:14.502Z,97.42
2018-07-28T05:36:14.552Z,97.81
2018-07-28T05:37:14.681Z,99.30
2018-07-28T05:38:14.679Z,98.58
2018-07-28T05:39:14.732Z,98.63
2018-07-28T05:40:14.771Z,99.50
2018-07-28T05:41:14.811Z,98.87
2018-07-28T05:42:14.865Z,98.92
2018-07-28T05:43:14.938Z,99.60
2018-07-28T05:44:14.967Z,99.60
2018-07-28T05:45:15.017Z,99.99
2018-07-28T05:46:15.068Z,99.99
2018-07-28T05:47:15.123Z,99.99
2018-07-28T05:48:15.207Z,99.99
2018-07-28T05:49:15.222Z,99.99
2018-07-28T05:50:15.343Z,99.99
2018-07-28T05:51:15.330Z,99.99
2018-07-28T05:52:15.379Z,99.84
2018-07-28T05:53:15.457Z,99.74
2018-07-28T05:54:15.513Z,99.26
2018-07-28T05:55:15.540Z,98.78
2018-07-28T05:56:15.592Z,98.39
2018-07-28T05:57:15.635Z,98.10
2018-07-28T05:58:15.689Z,98.29
2018-07-28T05:59:15.766Z,97.86
2018-07-28T06:00:15.792Z,98.05
2018-07-28T06:01:15.850Z,97.47
2018-07-28T06:02:16.741Z,98.15
2018-07-28T06:03:15.949Z,97.77
2018-07-28T06:04:16.028Z,98.05
2018-07-28T06:05:16.057Z,97.47
2018-07-28T06:06:16.109Z,97.57
2018-07-28T06:07:16.199Z,96.22
2018-07-28T06:08:16.208Z,96.03
2018-07-28T06:09:16.281Z,96.61
2018-07-28T06:10:16.336Z,96.80
2018-07-28T06:11:16.364Z,96.41
2018-07-28T06:12:16.436Z,96.41
2018-07-28T06:13:16.467Z,95.93
2018-07-28T06:14:16.559Z,96.80
2018-07-28T06:15:17.221Z,97.28
2018-07-28T06:16:17.410Z,96.61
2018-07-28T06:17:16.672Z,96.61
2018-07-28T06:18:16.725Z,96.66
2018-07-28T06:19:16.780Z,97.52
2018-07-28T06:20:16.897Z,96.56
2018-07-28T06:21:16.883Z,96.75
2018-07-28T06:22:16.940Z,96.75
2018-07-28T06:23:16.987Z,96.75
2018-07-28T06:24:17.039Z,95.88
2018-07-28T06:25:17.122Z,97.42
2018-07-28T06:26:17.142Z,98.00
2018-07-28T06:27:17.193Z,97.33
2018-07-28T06:28:17.249Z,97.14
2018-07-28T06:29:17.299Z,95.88
2018-07-28T06:30:17.401Z,97.14
2018-07-28T06:31:17.403Z,96.56
2018-07-28T06:32:17.456Z,96.80
2018-07-28T06:33:17.508Z,96.70
2018-07-28T06:34:17.565Z,97.47
2018-07-28T06:35:17.644Z,94.57
2018-07-28T06:36:17.665Z,97.62
2018-07-28T06:37:17.717Z,96.75
2018-07-28T06:38:17.772Z,96.07
2018-07-28T06:39:17.823Z,96.94
2018-07-28T06:40:17.899Z,96.94
2018-07-28T06:41:17.928Z,94.82
2018-07-28T06:42:17.981Z,96.56
2018-07-28T06:43:18.034Z,95.30
2018-07-28T06:44:18.086Z,94.48
2018-07-28T06:45:18.178Z,94.48
2018-07-28T06:46:18.193Z,91.67
2018-07-28T06:47:18.300Z,93.32
2018-07-28T06:48:18.302Z,93.60
2018-07-28T06:49:18.350Z,91.09
2018-07-28T06:50:18.433Z,89.74
2018-07-28T06:51:18.456Z,89.01
2018-07-28T06:52:18.510Z,87.60
2018-07-28T06:53:18.565Z,85.51
2018-07-28T06:54:18.617Z,81.13
2018-07-28T06:55:18.693Z,80.54
2018-07-28T06:56:18.726Z,78.19
2018-07-28T06:57:18.780Z,74.34
2018-07-28T06:58:18.832Z,72.76
2018-07-28T06:59:18.883Z,70.72
2018-07-28T07:00:18.970Z,70.87
2018-07-28T07:01:18.993Z,71.98
2018-07-28T07:02:19.047Z,71.59
2018-07-28T07:03:19.103Z,71.78
2018-07-28T07:04:19.160Z,71.33
2018-07-28T07:05:19.242Z,69.62
2018-07-28T07:06:19.289Z,69.42
2018-07-28T07:07:19.321Z,68.64
2018-07-28T07:08:19.373Z,67.83
2018-07-28T07:09:19.428Z,67.18
2018-07-28T07:10:19.485Z,66.93
2018-07-28T07:11:19.564Z,65.85
2018-07-28T07:12:19.596Z,66.69
2018-07-28T07:13:19.648Z,67.86
2018-07-28T07:14:19.707Z,68.55
2018-07-28T07:15:19.759Z,70.20
2018-07-28T07:16:19.852Z,70.45
2018-07-28T07:17:19.871Z,71.39
2018-07-28T07:18:19.928Z,72.39
2018-07-28T07:19:19.986Z,73.04
2018-07-28T07:20:20.043Z,73.43
2018-07-28T07:21:20.114Z,74.65
2018-07-28T07:22:20.169Z,73.46
2018-07-28T07:23:20.198Z,73.80
2018-07-28T07:24:20.259Z,76.17
2018-07-28T07:25:20.310Z,77.78
2018-07-28T07:26:20.399Z,79.63
2018-07-28T07:27:20.421Z,78.42
2018-07-28T07:28:20.522Z,79.55
2018-07-28T07:29:20.533Z,81.48
2018-07-28T07:30:20.629Z,79.28
2018-07-28T07:31:20.683Z,77.82
2018-07-28T07:32:20.696Z,77.57
2018-07-28T07:33:20.752Z,76.42
2018-07-28T07:34:20.808Z,78.46
2018-07-28T07:35:20.861Z,78.71
2018-07-28T07:36:20.938Z,80.85
2018-07-28T07:37:21.000Z,82.17
2018-07-28T07:38:21.024Z,83.18
2018-07-28T07:39:21.080Z,84.55
2018-07-28T07:40:21.133Z,84.45
2018-07-28T07:41:21.190Z,83.86
2018-07-28T07:42:21.281Z,82.26
2018-07-28T07:43:21.296Z,81.18
2018-07-28T07:44:21.362Z,79.63
2018-07-28T07:45:21.410Z,79.47
2018-07-28T07:46:21.481Z,78.64
2018-07-28T07:47:21.580Z,77.12
2018-07-28T07:48:21.573Z,78.75
2018-07-28T07:49:21.630Z,81.62
2018-07-28T07:50:21.681Z,84.06
2018-07-28T07:51:21.742Z,85.51
2018-07-28T07:52:21.820Z,86.09
2018-07-28T07:53:21.844Z,85.51
2018-07-28T07:54:21.899Z,86.29
2018-07-28T07:55:21.955Z,86.82
2018-07-28T07:56:22.011Z,87.06
2018-07-28T07:57:22.107Z,86.82
2018-07-28T07:58:22.122Z,86.43
2018-07-28T07:59:22.172Z,86.72
2018-07-28T08:00:22.225Z,87.16
2018-07-28T08:01:22.281Z,88.81
2018-07-28T08:02:22.380Z,88.61
2018-07-28T08:03:22.387Z,90.45
2018-07-28T08:04:22.443Z,92.00
2018-07-28T08:05:22.498Z,89.68
2018-07-28T08:06:22.566Z,89.48
2018-07-28T08:07:22.632Z,90.16
2018-07-28T08:08:22.685Z,90.36
2018-07-28T08:09:22.715Z,89.09
2018-07-28T08:10:22.769Z,89.34
2018-07-28T08:11:22.824Z,87.41
2018-07-28T08:12:22.881Z,85.72
2018-07-28T08:13:22.956Z,85.82
2018-07-28T08:14:22.989Z,86.98
2018-07-28T08:15:23.042Z,88.23
2018-07-28T08:16:23.095Z,89.20
2018-07-28T08:17:23.153Z,91.58
2018-07-28T08:18:23.227Z,91.28
2018-07-28T08:19:23.279Z,92.35
2018-07-28T08:20:23.312Z,89.83
2018-07-28T08:21:23.365Z,90.12
2018-07-28T08:22:23.418Z,89.15
2018-07-28T08:23:23.472Z,91.04
2018-07-28T08:24:23.547Z,90.51
2018-07-28T08:25:23.578Z,90.32
2018-07-28T08:26:23.639Z,90.75
2018-07-28T08:27:23.685Z,90.36
2018-07-28T08:28:23.743Z,91.24
2018-07-28T08:29:23.827Z,88.81
2018-07-28T08:30:23.846Z,89.97
2018-07-28T08:31:23.903Z,86.10
2018-07-28T08:32:23.957Z,81.27
2018-07-28T08:33:24.028Z,81.56
2018-07-28T08:34:24.085Z,79.82
2018-07-28T08:35:24.115Z,79.14
2018-07-28T08:36:24.236Z,80.73
2018-07-28T08:37:24.225Z,80.63
2018-07-28T08:38:24.276Z,81.12
2018-07-28T08:39:24.331Z,77.82
2018-07-28T08:40:24.413Z,76.56
2018-07-28T08:41:24.436Z,77.05
2018-07-28T08:42:24.491Z,74.73
2018-07-28T08:43:24.542Z,74.24
2018-07-28T08:44:24.598Z,75.11
2018-07-28T08:45:24.678Z,75.65
2018-07-28T08:46:24.702Z,75.95
2018-07-28T08:47:24.778Z,75.46
2018-07-28T08:48:24.812Z,75.75
2018-07-28T08:49:24.955Z,75.95
2018-07-28T08:50:24.920Z,77.50
2018-07-28T08:51:24.993Z,77.78
2018-07-28T08:52:25.023Z,77.11
2018-07-28T08:53:25.077Z,78.56
2018-07-28T08:54:25.130Z,78.08
2018-07-28T08:55:25.209Z,75.95
2018-07-28T08:56:25.275Z,76.72
2018-07-28T08:57:25.291Z,76.62
2018-07-28T08:58:25.345Z,77.14
2018-07-28T08:59:25.399Z,76.46
2018-07-28T09:00:25.453Z,75.89
2018-07-28T09:01:25.540Z,76.86
2018-07-28T09:02:25.558Z,76.37
2018-07-28T09:03:25.611Z,76.18
2018-07-28T09:04:25.671Z,75.98
2018-07-28T09:05:25.717Z,76.18
2018-07-28T09:06:25.809Z,76.89
2018-07-28T09:07:25.825Z,75.92
2018-07-28T09:08:25.909Z,76.12
2018-07-28T09:09:25.934Z,77.09
2018-07-28T09:10:25.991Z,76.79
2018-07-28T09:11:26.070Z,75.92
2018-07-28T09:12:26.179Z,77.96
2018-07-28T09:13:26.151Z,75.34
2018-07-28T09:14:26.206Z,76.41
2018-07-28T09:15:26.256Z,76.06
2018-07-28T09:16:26.355Z,75.19
2018-07-28T09:17:26.367Z,77.51
2018-07-28T09:18:26.441Z,76.06
2018-07-28T09:19:26.474Z,75.96
2018-07-28T09:20:26.524Z,76.21
2018-07-28T09:21:26.581Z,75.92
2018-07-28T09:22:26.678Z,75.92
2018-07-28T09:23:26.802Z,74.96
2018-07-28T09:24:27.282Z,76.12
2018-07-28T09:25:26.793Z,76.21
2018-07-28T09:26:26.850Z,75.92
2018-07-28T09:27:26.913Z,75.24
2018-07-28T09:28:26.985Z,75.98
2018-07-28T09:29:27.010Z,75.21
2018-07-28T09:30:27.077Z,75.60
2018-07-28T09:31:27.115Z,76.28
2018-07-28T09:32:27.173Z,75.79
2018-07-28T09:33:27.246Z,76.66
2018-07-28T09:34:27.287Z,75.98
2018-07-28T09:35:27.333Z,75.50
2018-07-28T09:36:27.386Z,75.50
2018-07-28T09:37:27.439Z,76.46
2018-07-28T09:38:27.534Z,76.18
2018-07-28T09:39:27.546Z,77.14
2018-07-28T09:40:27.604Z,78.89
2018-07-28T09:41:27.654Z,78.21
2018-07-28T09:42:27.709Z,79.37
2018-07-28T09:43:27.793Z,79.27
2018-07-28T09:44:27.815Z,79.76
2018-07-28T09:45:27.870Z,79.95
2018-07-28T09:46:27.990Z,78.79
2018-07-28T09:47:27.975Z,79.66
2018-07-28T09:48:28.058Z,80.28
2018-07-28T09:49:28.084Z,81.15
2018-07-28T09:50:28.139Z,82.35
2018-07-28T09:51:28.210Z,81.97
2018-07-28T09:52:28.247Z,82.75
2018-07-28T09:53:28.355Z,79.90
2018-07-28T09:54:28.363Z,79.50
2018-07-28T09:55:28.404Z,79.32
2018-07-28T09:56:28.458Z,79.02
2018-07-28T09:57:28.512Z,79.02
2018-07-28T09:58:28.587Z,78.15
2018-07-28T09:59:28.618Z,78.54
2018-07-28T10:00:28.708Z,77.42
2018-07-28T10:01:28.727Z,77.80
2018-07-28T10:02:28.787Z,75.28
2018-07-28T10:03:28.836Z,74.99
2018-07-28T10:04:28.895Z,74.02
2018-07-28T10:05:29.018Z,74.41
2018-07-28T10:06:28.999Z,75.57
2018-07-28T10:07:29.050Z,75.96
2018-07-28T10:08:29.104Z,75.28
2018-07-28T10:09:29.158Z,73.86
2018-07-28T10:10:29.251Z,74.41
2018-07-28T10:11:29.266Z,74.84
2018-07-28T10:12:29.323Z,75.28
2018-07-28T10:13:29.377Z,74.16
2018-07-28T10:14:29.443Z,73.28
2018-07-28T10:15:29.515Z,71.93
2018-07-28T10:16:29.540Z,72.22
2018-07-28T10:17:29.593Z,72.02
2018-07-28T10:18:29.645Z,70.67
2018-07-28T10:19:29.701Z,70.76
2018-07-28T10:20:29.777Z,69.02
2018-07-28T10:21:29.808Z,69.44
2018-07-28T10:22:29.886Z,69.83
2018-07-28T10:23:29.916Z,70.03
2018-07-28T10:24:30.018Z,70.06
2018-07-28T10:25:30.027Z,69.93
2018-07-28T10:26:30.085Z,69.34
2018-07-28T10:27:30.182Z,70.47
2018-07-28T10:28:30.209Z,70.96
2018-07-28T10:29:30.242Z,71.31
2018-07-28T10:30:30.298Z,71.89
2018-07-28T10:31:30.362Z,73.64
2018-07-28T10:32:30.440Z,73.64
2018-07-28T10:33:30.468Z,74.22
2018-07-28T10:34:30.520Z,74.51
2018-07-28T10:35:30.570Z,74.70
2018-07-28T10:36:30.726Z,74.22
2018-07-28T10:37:30.710Z,73.96
2018-07-28T10:38:30.731Z,73.19
2018-07-28T10:39:30.794Z,73.09
2018-07-28T10:40:30.841Z,73.96
2018-07-28T10:41:30.925Z,73.67
2018-07-28T10:42:30.989Z,72.99
2018-07-28T10:43:31.005Z,72.99
2018-07-28T10:44:31.065Z,73.09
2018-07-28T10:45:31.120Z,72.64
2018-07-28T10:46:31.173Z,73.07
2018-07-28T10:47:31.253Z,72.87
2018-07-28T10:48:31.276Z,69.09
2018-07-28T10:49:31.335Z,69.18
2018-07-28T10:50:31.386Z,69.02
2018-07-28T10:51:31.443Z,70.81
2018-07-28T10:52:31.529Z,68.22
2018-07-28T10:53:31.561Z,64.07
2018-07-28T10:54:31.606Z,62.71
2018-07-28T10:55:31.712Z,62.64
2018-07-28T10:56:31.715Z,60.60
2018-07-28T10:57:31.795Z,61.51
2018-07-28T10:58:31.829Z,61.70
2018-07-28T10:59:31.886Z,61.11
2018-07-28T11:00:31.999Z,61.60
2018-07-28T11:01:32.020Z,61.11
2018-07-28T11:02:32.082Z,61.54
2018-07-28T11:03:32.108Z,63.68
2018-07-28T11:04:32.161Z,64.23
2018-07-28T11:05:32.221Z,65.04
2018-07-28T11:06:32.274Z,66.63
2018-07-28T11:07:32.360Z,67.37
2018-07-28T11:08:32.390Z,68.63
2018-07-28T11:09:32.447Z,68.41
2018-07-28T11:10:32.519Z,69.38
2018-07-28T11:11:32.555Z,68.31
2018-07-28T11:12:32.637Z,69.09
2018-07-28T11:13:32.670Z,69.86
2018-07-28T11:14:32.725Z,70.45
2018-07-28T11:15:32.803Z,70.54
2018-07-28T11:16:32.834Z,68.15
2018-07-28T11:17:32.891Z,66.17
2018-07-28T11:18:33.033Z,61.83
2018-07-28T11:19:33.001Z,61.41
2018-07-28T11:20:33.060Z,60.56
2018-07-28T11:21:33.113Z,60.56
2018-07-28T11:26:35.057Z,55.62
2018-07-28T11:27:35.052Z,55.82
2018-07-28T11:28:34.231Z,56.50
2018-07-28T11:29:34.278Z,57.67
2018-07-28T11:30:34.357Z,58.25
2018-07-28T11:31:34.467Z,58.25
2018-07-28T11:32:34.452Z,57.54
2018-07-28T11:33:36.036Z,58.69
2018-07-28T11:34:38.038Z,57.42
2018-07-28T11:35:34.660Z,59.00
2018-07-28T11:36:34.680Z,57.28
2018-07-28T11:37:34.747Z,57.11
2018-07-28T11:38:34.798Z,56.60
2018-07-28T11:39:34.853Z,55.96
2018-07-28T11:40:35.617Z,55.93
2018-07-28T11:41:34.971Z,55.74
2018-07-28T11:42:35.058Z,55.44
2018-07-28T11:43:38.039Z,57.49
2018-07-28T11:44:35.143Z,60.57
2018-07-28T11:45:35.388Z,59.69
2018-07-28T11:46:35.257Z,59.59
2018-07-28T11:47:35.317Z,58.23
2018-07-28T11:48:35.374Z,56.39
2018-07-28T11:49:35.433Z,57.49
2018-07-28T11:50:35.511Z,58.56
2018-07-28T11:51:35.584Z,57.29
2018-07-28T11:52:35.611Z,55.83
2018-07-28T11:53:35.662Z,55.44
2018-07-28T11:54:36.343Z,55.03
2018-07-28T11:55:35.776Z,54.83
2018-07-28T11:56:35.857Z,57.42
2018-07-28T11:57:35.892Z,55.76
2018-07-28T11:58:35.949Z,54.03
2018-07-28T11:59:36.008Z,52.02
2018-07-28T12:00:36.071Z,50.97
2018-07-28T12:01:36.153Z,52.92
2018-07-28T12:02:36.177Z,52.44
2018-07-28T12:03:36.238Z,50.97
2018-07-28T12:04:36.301Z,50.19
2018-07-28T12:05:36.424Z,50.82
2018-07-28T12:06:36.442Z,52.84
2018-07-28T12:07:36.468Z,53.69
2018-07-28T12:08:36.532Z,54.96
2018-07-28T12:09:36.584Z,55.93
2018-07-28T12:10:36.640Z,54.47
2018-07-28T12:11:36.731Z,54.79
2018-07-28T12:12:36.805Z,54.89
2018-07-28T12:13:36.814Z,54.33
2018-07-28T12:14:36.872Z,55.33
2018-07-28T12:15:36.931Z,53.87
2018-07-28T12:16:37.032Z,53.19
2018-07-28T12:17:37.048Z,53.19
2018-07-28T12:18:37.122Z,54.23
2018-07-28T12:19:37.160Z,54.50
2018-07-28T12:20:37.224Z,56.54
2018-07-28T12:21:37.311Z,55.40
2018-07-28T12:22:37.338Z,55.69
2018-07-28T12:23:37.394Z,55.69
2018-07-28T12:24:37.455Z,55.89
2018-07-28T12:25:37.510Z,55.60
2018-07-28T12:26:37.596Z,55.89
2018-07-28T12:27:37.623Z,54.60
2018-07-28T12:28:37.687Z,56.05
2018-07-28T12:29:37.739Z,57.22
2018-07-28T12:30:37.798Z,55.66
2018-07-28T12:31:37.892Z,56.84
2018-07-28T12:32:37.911Z,55.86
2018-07-28T12:33:37.996Z,58.10
2018-07-28T12:34:38.049Z,55.18
2018-07-28T12:35:38.086Z,56.22
2018-07-28T12:36:38.141Z,57.29
2018-07-28T12:37:38.230Z,59.05
2018-07-28T12:38:38.282Z,59.95
2018-07-28T12:39:38.319Z,57.51
2018-07-28T12:40:38.379Z,58.20
2018-07-28T12:41:38.430Z,60.82
2018-07-28T12:42:38.519Z,63.84
2018-07-28T12:43:38.567Z,63.94
2018-07-28T12:44:38.599Z,60.79
2018-07-28T12:45:38.656Z,62.84
2018-07-28T12:46:38.714Z,64.00
2018-07-28T12:47:38.771Z,63.03
2018-07-28T12:48:38.859Z,63.81
2018-07-28T12:49:38.896Z,61.18
2018-07-28T12:50:38.942Z,65.37
2018-07-28T12:51:38.997Z,64.98
2018-07-28T12:52:39.056Z,64.39
2018-07-28T12:53:39.137Z,63.42
2018-07-28T12:54:39.169Z,64.29
2018-07-28T12:55:39.255Z,64.26
2018-07-28T12:56:39.286Z,65.23
2018-07-28T12:57:39.337Z,65.33